Time;durP1;ratioP1;P1;durP2;ratioP2;P2;SDS_P1;SDS_P2;PMS_P1;PMS_P2;Temp;Humidity;BMP_temperature;BMP_pressure;BME280_temperature;BME280_humidity;BME280_pressure;Samples;Min_cycle;Max_cycle;Signal;HPM_P1;HPM_P2
2022/04/26 03:37:05;;;;;;;76.45;52.65;;;17.10;56.80;;;;;;4941387;28;90821;-40
2022/04/26 03:39:34;;;;;;;78.15;52.95;;;17.00;56.80;;;;;;4950471;28;89929;-38
2022/04/26 03:42:02;;;;;;;76.88;52.63;;;17.00;56.70;;;;;;4944222;28;92471;-39
2022/04/26 03:44:28;;;;;;;76.60;52.30;;;17.10;56.80;;;;;;4946201;28;92680;-40
2022/04/26 03:46:54;;;;;;;75.60;52.03;;;17.00;56.80;;;;;;4945768;28;91638;-39
2022/04/26 03:49:21;;;;;;;75.53;51.97;;;17.00;56.80;;;;;;4941171;28;93221;-40
2022/04/26 03:51:47;;;;;;;76.22;51.83;;;17.00;56.80;;;;;;4937696;28;90522;-39
2022/04/26 03:54:13;;;;;;;76.80;52.08;;;17.00;56.80;;;;;;4933771;28;89892;-37
2022/04/26 03:56:38;;;;;;;75.60;51.95;;;17.00;56.70;;;;;;4942984;28;93080;-39
2022/04/26 03:59:04;;;;;;;76.30;52.22;;;17.00;56.80;;;;;;4945465;28;90039;-41
2022/04/26 04:01:30;;;;;;;75.70;52.00;;;17.00;56.80;;;;;;4937872;28;91324;-39
2022/04/26 04:03:55;;;;;;;75.70;51.58;;;17.00;56.80;;;;;;4932100;28;91844;-41
2022/04/26 04:06:21;;;;;;;76.20;52.03;;;17.00;56.70;;;;;;4927380;28;91655;-40
2022/04/26 04:08:47;;;;;;;75.22;51.50;;;17.00;56.70;;;;;;4944845;28;94910;-40
2022/04/26 04:11:12;;;;;;;75.32;51.67;;;17.00;56.70;;;;;;4932530;28;90598;-40
2022/04/26 04:13:38;;;;;;;75.18;51.85;;;17.00;56.80;;;;;;4931731;28;90277;-42
2022/04/26 04:16:04;;;;;;;76.15;52.03;;;17.00;56.70;;;;;;4933048;28;89949;-37
2022/04/26 04:21:14;;;;;;;74.88;51.33;;;17.00;56.80;;;;;;4937989;28;91718;-39
2022/04/26 04:23:40;;;;;;;75.85;51.83;;;17.00;56.80;;;;;;4942375;28;89953;-40
2022/04/26 04:26:07;;;;;;;76.00;51.47;;;17.00;56.80;;;;;;4949387;28;90663;-40
2022/04/26 04:28:34;;;;;;;74.88;51.53;;;17.00;56.70;;;;;;4940426;28;89926;-39
2022/04/26 04:31:00;;;;;;;75.13;51.55;;;17.00;56.80;;;;;;4944579;28;90227;-38
2022/04/26 04:33:26;;;;;;;74.40;51.15;;;17.00;56.80;;;;;;4945550;28;91040;-40
2022/04/26 04:35:52;;;;;;;75.20;51.05;;;17.00;56.80;;;;;;4945326;28;90243;-38
2022/04/26 04:38:18;;;;;;;75.63;51.58;;;17.00;56.80;;;;;;4943958;28;89677;-40
2022/04/26 04:40:43;;;;;;;75.18;51.33;;;17.00;56.80;;;;;;4936504;28;90697;-38
2022/04/26 04:43:12;;;;;;;74.80;51.20;;;16.90;56.70;;;;;;4941425;28;89324;-39
2022/04/26 04:45:41;;;;;;;75.88;51.33;;;16.90;56.70;;;;;;4946905;28;89925;-38
2022/04/26 04:48:07;;;;;;;75.13;51.38;;;16.90;56.70;;;;;;4944595;28;89848;-42
2022/04/26 04:50:34;;;;;;;74.80;51.35;;;16.90;56.70;;;;;;4941120;28;92964;-37
2022/04/26 04:53:00;;;;;;;74.78;51.28;;;16.90;56.70;;;;;;4948409;28;91297;-36
2022/04/26 04:55:26;;;;;;;75.97;51.30;;;16.90;56.70;;;;;;4949522;28;89806;-42
2022/04/26 04:57:52;;;;;;;74.63;50.92;;;16.90;56.70;;;;;;4950601;28;89434;-37
2022/04/26 05:00:18;;;;;;;74.50;50.92;;;16.90;56.70;;;;;;4945325;28;90763;-40
2022/04/26 05:02:44;;;;;;;74.80;51.05;;;16.90;56.70;;;;;;4943455;28;93578;-38
2022/04/26 05:05:10;;;;;;;75.72;51.05;;;16.90;56.80;;;;;;4955052;28;91573;-37
2022/04/26 05:07:37;;;;;;;74.40;50.97;;;16.90;56.80;;;;;;4939452;28;89070;-40
2022/04/26 05:10:06;;;;;;;75.82;51.33;;;16.90;56.80;;;;;;4944349;28;90486;-39
2022/04/26 05:12:33;;;;;;;74.78;50.70;;;16.90;56.80;;;;;;4948036;28;94605;-39
2022/04/26 05:14:58;;;;;;;74.68;50.65;;;16.90;56.80;;;;;;4950651;28;91519;-41
2022/04/26 05:17:26;;;;;;;75.88;51.22;;;17.00;56.80;;;;;;4941108;28;90621;-39
2022/04/26 05:19:52;;;;;;;75.57;51.15;;;16.90;56.80;;;;;;4948713;28;90181;-40
2022/04/26 05:22:18;;;;;;;75.72;51.03;;;16.90;56.90;;;;;;4947423;28;94714;-38
2022/04/26 05:24:59;;;;;;;75.40;51.08;;;16.90;56.80;;;;;;4949098;28;90206;-38
2022/04/26 05:27:29;;;;;;;74.95;50.92;;;16.90;56.90;;;;;;4947711;28;89992;-39
2022/04/26 05:29:56;;;;;;;74.90;51.05;;;16.90;56.80;;;;;;4937609;28;90167;-36
2022/04/26 05:32:27;;;;;;;77.00;51.17;;;16.90;56.80;;;;;;4944896;28;91353;-38
2022/04/26 05:34:57;;;;;;;77.60;51.17;;;16.90;56.80;;;;;;4951362;28;90867;-42
2022/04/26 05:37:23;;;;;;;75.80;51.05;;;16.90;56.80;;;;;;4948310;28;90008;-41
2022/04/26 05:39:49;;;;;;;75.30;51.03;;;16.90;56.70;;;;;;4947621;28;95224;-41
2022/04/26 05:42:15;;;;;;;78.20;50.90;;;16.90;56.90;;;;;;4945322;28;90823;-42
2022/04/26 05:44:42;;;;;;;76.38;51.10;;;16.90;56.70;;;;;;4943548;28;90170;-41
2022/04/26 05:47:09;;;;;;;76.55;51.35;;;16.90;56.70;;;;;;4947742;28;90887;-40
2022/04/26 05:49:35;;;;;;;74.85;51.05;;;17.00;56.70;;;;;;4950652;28;93007;-40
2022/04/26 05:52:01;;;;;;;75.38;50.78;;;16.90;56.50;;;;;;4947710;28;89843;-39
2022/04/26 05:54:27;;;;;;;76.22;50.97;;;16.90;56.50;;;;;;4948311;28;93631;-38
2022/04/26 05:56:53;;;;;;;76.40;50.85;;;16.90;56.50;;;;;;4950727;28;88772;-40
2022/04/26 05:59:20;;;;;;;75.40;51.20;;;16.90;56.60;;;;;;4946290;28;90494;-38
2022/04/26 06:01:45;;;;;;;75.50;51.13;;;17.00;56.50;;;;;;4946785;28;90259;-40
2022/04/26 06:04:11;;;;;;;75.45;50.80;;;16.90;56.40;;;;;;4952716;28;90899;-42
2022/04/26 06:06:37;;;;;;;75.15;50.95;;;16.90;56.40;;;;;;4944921;28;89907;-39
2022/04/26 06:09:03;;;;;;;74.63;50.75;;;16.90;56.40;;;;;;4943075;28;90546;-38
2022/04/26 06:11:29;;;;;;;74.63;50.78;;;16.90;56.40;;;;;;4956011;28;90924;-41
2022/04/26 06:13:54;;;;;;;75.13;50.92;;;16.90;56.40;;;;;;4904263;22;91488;-64
2022/04/26 06:16:20;;;;;;;75.05;50.72;;;16.90;56.40;;;;;;4921619;28;93697;-65
2022/04/26 06:18:46;;;;;;;75.78;51.17;;;16.90;56.30;;;;;;4924480;28;90485;-65
2022/04/26 06:21:11;;;;;;;76.60;51.10;;;17.00;56.30;;;;;;4930094;28;89129;-65
2022/04/26 06:23:37;;;;;;;75.43;51.13;;;16.90;56.20;;;;;;4919590;28;93100;-65
2022/04/26 06:26:03;;;;;;;75.20;51.25;;;16.90;56.30;;;;;;4927177;28;90924;-65
2022/04/26 06:28:28;;;;;;;75.72;51.33;;;17.00;56.40;;;;;;4924771;28;91265;-65
2022/04/26 06:30:55;;;;;;;74.93;51.00;;;17.00;56.30;;;;;;4914666;28;90666;-65
2022/04/26 06:33:20;;;;;;;76.47;51.15;;;17.00;56.20;;;;;;4926673;28;91123;-65
2022/04/26 06:35:46;;;;;;;78.53;51.10;;;17.00;56.10;;;;;;4935849;28;89679;-65
2022/04/26 06:38:12;;;;;;;75.93;51.17;;;17.00;56.20;;;;;;4919989;28;90210;-65
2022/04/26 06:40:37;;;;;;;76.20;51.25;;;17.00;56.00;;;;;;4930815;28;89818;-67
2022/04/26 06:43:03;;;;;;;76.10;51.17;;;17.00;56.00;;;;;;4921010;28;92412;-65
2022/04/26 06:45:29;;;;;;;75.65;51.17;;;17.00;56.00;;;;;;4926182;28;90106;-65
2022/04/26 06:47:55;;;;;;;76.03;51.33;;;17.00;56.10;;;;;;4915022;28;91424;-65
2022/04/26 06:50:22;;;;;;;76.15;51.17;;;17.00;55.90;;;;;;4920516;28;90291;-65
2022/04/26 06:52:47;;;;;;;76.82;51.33;;;17.00;56.10;;;;;;4923172;28;90414;-65
2022/04/26 06:55:13;;;;;;;75.45;51.28;;;16.90;55.90;;;;;;4921095;28;90357;-65
2022/04/26 06:57:39;;;;;;;76.80;51.22;;;16.90;56.00;;;;;;4909392;28;91155;-65
2022/04/26 07:00:09;;;;;;;76.68;51.08;;;17.00;55.90;;;;;;4926755;28;90504;-66
2022/04/26 07:02:35;;;;;;;75.80;50.75;;;16.90;55.90;;;;;;4923145;28;89775;-65
2022/04/26 07:05:01;;;;;;;76.07;51.17;;;17.00;56.00;;;;;;4931316;28;90366;-65
2022/04/26 07:07:27;;;;;;;77.13;51.42;;;17.00;55.90;;;;;;4929603;28;93064;-65
2022/04/26 07:09:52;;;;;;;76.82;51.33;;;17.00;56.00;;;;;;4926960;28;89674;-66
2022/04/26 07:12:18;;;;;;;75.93;51.47;;;17.00;55.90;;;;;;4930697;28;90050;-65
2022/04/26 07:14:44;;;;;;;75.88;51.08;;;17.00;55.90;;;;;;4927907;28;89872;-65
2022/04/26 07:17:10;;;;;;;76.70;51.25;;;17.00;55.70;;;;;;4935672;28;91042;-65
2022/04/26 07:19:36;;;;;;;75.53;50.83;;;17.00;55.70;;;;;;4920051;28;91989;-65
2022/04/26 07:22:05;;;;;;;76.20;51.03;;;17.00;55.80;;;;;;4918220;28;89589;-66
2022/04/26 07:24:34;;;;;;;76.57;50.95;;;17.00;55.70;;;;;;4921806;28;90228;-65
2022/04/26 07:27:00;;;;;;;76.25;51.33;;;17.10;55.60;;;;;;4930148;28;91677;-65
2022/04/26 07:29:26;;;;;;;75.95;51.35;;;17.10;55.70;;;;;;4929436;28;90649;-65
2022/04/26 07:31:52;;;;;;;76.53;51.35;;;17.10;55.60;;;;;;4928471;28;90898;-65
2022/04/26 07:34:20;;;;;;;76.10;51.35;;;17.10;55.50;;;;;;4933289;28;88994;-65
2022/04/26 07:36:50;;;;;;;76.72;51.25;;;17.10;55.50;;;;;;4927064;28;90666;-65
2022/04/26 07:39:18;;;;;;;76.18;51.40;;;17.10;55.20;;;;;;4928683;28;90187;-66
2022/04/26 07:41:47;;;;;;;76.53;51.55;;;17.10;55.50;;;;;;4923260;28;92140;-66
2022/04/26 07:44:14;;;;;;;76.38;51.38;;;17.10;55.40;;;;;;4930110;28;93455;-65
2022/04/26 07:46:43;;;;;;;76.50;51.50;;;17.10;55.40;;;;;;4934405;28;90094;-65
2022/04/26 07:49:10;;;;;;;76.88;51.35;;;17.10;55.30;;;;;;4923841;28;90705;-65
2022/04/26 07:51:36;;;;;;;76.75;51.40;;;17.10;55.20;;;;;;4910840;28;93215;-65
2022/04/26 07:54:02;;;;;;;76.78;51.25;;;17.10;55.30;;;;;;4927472;28;89787;-65
2022/04/26 07:56:28;;;;;;;78.10;51.35;;;17.20;55.30;;;;;;4931601;28;91073;-65
2022/04/26 07:58:54;;;;;;;76.45;51.58;;;17.20;55.20;;;;;;4927292;28;89632;-65
2022/04/26 08:01:20;;;;;;;77.63;51.50;;;17.20;55.30;;;;;;4929192;28;89842;-65
2022/04/26 08:03:46;;;;;;;78.63;51.45;;;17.20;55.30;;;;;;4929413;28;93551;-65
2022/04/26 08:06:11;;;;;;;77.05;51.47;;;17.20;55.20;;;;;;4927716;28;91396;-66
2022/04/26 08:08:39;;;;;;;77.80;51.50;;;17.20;55.10;;;;;;4934535;28;90903;-65
2022/04/26 08:11:05;;;;;;;77.15;51.42;;;17.20;54.90;;;;;;4931298;28;94631;-65
2022/04/26 08:13:30;;;;;;;77.03;51.45;;;17.20;54.90;;;;;;4932446;28;89422;-65
2022/04/26 08:15:56;;;;;;;76.70;51.45;;;17.30;55.00;;;;;;4931120;28;89876;-65
2022/04/26 08:18:22;;;;;;;76.78;51.53;;;17.30;55.00;;;;;;4929444;28;90436;-65
2022/04/26 08:20:48;;;;;;;76.93;51.28;;;17.30;55.00;;;;;;4933762;28;90164;-65
2022/04/26 08:23:13;;;;;;;79.63;51.45;;;17.30;54.90;;;;;;4930126;28;90141;-65
2022/04/26 08:28:28;;;;;;;76.78;51.38;;;17.30;54.90;;;;;;4925142;28;90771;-65
2022/04/26 08:30:55;;;;;;;76.20;51.15;;;17.30;54.90;;;;;;4924815;28;90781;-64
2022/04/26 08:33:21;;;;;;;77.10;51.28;;;17.30;54.90;;;;;;4942407;28;90088;-66
2022/04/26 08:35:47;;;;;;;77.25;51.38;;;17.30;54.90;;;;;;4932975;28;90919;-65
2022/04/26 08:38:13;;;;;;;76.78;51.45;;;17.30;54.80;;;;;;4925164;28;96146;-65
2022/04/26 08:40:42;;;;;;;76.88;51.45;;;17.30;54.90;;;;;;4934634;28;94918;-65
2022/04/26 08:43:07;;;;;;;77.35;51.63;;;17.30;54.70;;;;;;4941218;28;93991;-65
2022/04/26 08:45:38;;;;;;;76.65;51.38;;;17.30;54.80;;;;;;4934717;28;89750;-65
2022/04/26 08:51:04;;;;;;;77.22;51.30;;;17.30;54.90;;;;;;4931982;28;92842;-65
2022/04/26 08:53:35;;;;;;;75.93;51.10;;;17.30;55.00;;;;;;4935767;28;90130;-65
2022/04/26 08:56:04;;;;;;;76.55;51.13;;;17.30;55.00;;;;;;4935414;28;91784;-66
2022/04/26 08:58:34;;;;;;;75.95;51.05;;;17.20;54.90;;;;;;4927530;28;90034;-65
2022/04/26 09:01:15;;;;;;;76.75;50.90;;;17.30;55.00;;;;;;4934860;28;89754;-65
2022/04/26 09:03:54;;;;;;;76.30;51.20;;;17.30;55.00;;;;;;4936265;28;91395;-70
2022/04/26 09:06:32;;;;;;;76.00;51.25;;;17.30;55.10;;;;;;4931740;28;90515;-65
2022/04/26 09:09:21;;;;;;;76.47;51.13;;;17.20;55.10;;;;;;4935882;28;90980;-66
2022/04/26 09:11:48;;;;;;;77.18;50.75;;;17.20;55.00;;;;;;4931012;28;91026;-65
2022/04/26 09:14:32;;;;;;;76.18;51.22;;;17.20;55.00;;;;;;4935878;28;90153;-66
2022/04/26 09:17:09;;;;;;;76.43;51.28;;;17.30;55.00;;;;;;4917081;28;93445;-66
2022/04/26 09:20:06;;;;;;;76.32;50.97;;;17.20;54.80;;;;;;4928690;28;90085;-65
2022/04/26 09:22:33;;;;;;;76.03;50.92;;;17.30;55.00;;;;;;4921561;28;91935;-65
2022/04/26 09:25:04;;;;;;;76.55;51.25;;;17.30;55.00;;;;;;4921241;28;90807;-66
2022/04/26 09:27:30;;;;;;;;;;;17.30;55.00;;;;;;4932453;28;89989;-65
2022/04/26 09:29:57;;;;;;;74.90;50.83;;;17.20;54.80;;;;;;4930697;28;90715;-66
2022/04/26 09:32:25;;;;;;;75.72;51.00;;;17.20;54.90;;;;;;4921211;28;89933;-65
2022/04/26 09:34:51;;;;;;;76.00;50.92;;;17.20;55.00;;;;;;4938077;28;89613;-65
2022/04/26 09:37:17;;;;;;;77.57;51.50;;;17.30;54.80;;;;;;4922848;28;91315;-66
2022/04/26 09:40:06;;;;;;;76.88;51.40;;;17.30;55.00;;;;;;4928797;28;90515;-65
2022/04/26 09:42:33;;;;;;;76.55;51.70;;;17.30;54.70;;;;;;4929073;28;90657;-66
2022/04/26 09:45:07;;;;;;;75.53;50.95;;;17.20;54.20;;;;;;4931833;28;90261;-66
2022/04/26 09:47:40;;;;;;;75.55;50.92;;;17.20;54.80;;;;;;4917973;28;91564;-65
2022/04/26 09:50:11;;;;;;;75.80;51.22;;;17.20;54.90;;;;;;4929726;28;92721;-65
2022/04/26 09:52:41;;;;;;;75.47;50.80;;;17.20;54.30;;;;;;4919892;28;90461;-65
2022/04/26 09:55:08;;;;;;;76.72;51.28;;;17.30;54.90;;;;;;4925491;28;90499;-66
2022/04/26 09:57:36;;;;;;;76.40;50.92;;;17.30;54.90;;;;;;4928653;28;90084;-65
2022/04/26 10:00:09;;;;;;;76.85;51.03;;;17.30;54.80;;;;;;4925427;28;89720;-65
2022/04/26 10:02:40;;;;;;;75.53;50.78;;;17.30;54.80;;;;;;4928323;28;91977;-66
2022/04/26 10:05:07;;;;;;;76.82;51.20;;;17.30;54.70;;;;;;4936906;28;88818;-64
2022/04/26 10:07:36;;;;;;;75.40;50.75;;;17.30;54.70;;;;;;4920293;28;91426;-66
2022/04/26 10:10:03;;;;;;;76.32;51.22;;;17.30;54.90;;;;;;4937421;28;89843;-66
2022/04/26 10:12:31;;;;;;;76.18;51.22;;;17.30;54.70;;;;;;4923687;28;91575;-66
2022/04/26 10:14:58;;;;;;;76.88;51.22;;;17.30;54.70;;;;;;4931164;28;90545;-66
2022/04/26 10:17:24;;;;;;;76.00;51.08;;;17.30;54.70;;;;;;4930424;28;90436;-67
2022/04/26 10:19:49;;;;;;;76.93;51.08;;;17.40;54.60;;;;;;4921494;28;90166;-67
2022/04/26 10:22:17;;;;;;;76.57;51.40;;;17.40;54.70;;;;;;4928313;28;89976;-66
2022/04/26 10:25:12;;;;;;;76.75;51.25;;;17.40;54.40;;;;;;4914290;28;90084;-66
2022/04/26 10:27:40;;;;;;;76.28;50.83;;;17.40;54.30;;;;;;4931650;28;90075;-66
2022/04/26 10:30:06;;;;;;;76.45;51.20;;;17.40;54.60;;;;;;4929171;28;93623;-66
2022/04/26 10:32:38;;;;;;;76.97;51.17;;;17.40;54.50;;;;;;4928791;28;91549;-66
2022/04/26 10:35:26;;;;;;;76.38;50.95;;;17.40;54.60;;;;;;4928008;28;90502;-66
2022/04/26 10:38:12;;;;;;;76.38;51.05;;;17.40;54.60;;;;;;4924051;28;92300;-67
2022/04/26 10:41:05;;;;;;;75.90;51.03;;;17.40;54.50;;;;;;4927313;28;91617;-66
2022/04/26 10:43:31;;;;;;;76.53;51.42;;;17.40;54.30;;;;;;4927379;28;89776;-66
2022/04/26 10:46:16;;;;;;;77.50;50.95;;;17.50;54.40;;;;;;4932555;28;89731;-67
2022/04/26 10:48:42;;;;;;;78.10;51.13;;;17.50;54.50;;;;;;4924401;28;90927;-67
2022/04/26 10:51:43;;;;;;;76.93;51.13;;;17.50;54.50;;;;;;4933869;28;89992;-67
2022/04/26 10:54:08;;;;;;;76.55;51.00;;;17.50;54.50;;;;;;4902598;28;97684;-67
2022/04/26 10:56:35;;;;;;;77.30;51.25;;;17.50;54.30;;;;;;4919115;28;92516;-67
2022/04/26 10:59:01;;;;;;;78.40;51.45;;;17.50;54.20;;;;;;4922705;28;94502;-66
2022/04/26 11:01:30;;;;;;;76.50;51.17;;;17.50;53.90;;;;;;4929813;28;91792;-67
2022/04/26 11:03:57;;;;;;;77.07;50.88;;;17.50;54.20;;;;;;4936123;28;90988;-67
2022/04/26 11:06:32;;;;;;;77.50;51.60;;;17.50;54.10;;;;;;4919617;28;90916;-67
2022/04/26 11:09:12;;;;;;;77.72;51.45;;;17.50;54.10;;;;;;4923897;28;90254;-67
2022/04/26 11:11:48;;;;;;;76.25;50.88;;;17.50;54.30;;;;;;4929667;28;90562;-66
2022/04/26 11:14:15;;;;;;;77.63;51.33;;;17.50;54.30;;;;;;4926149;28;95523;-66
2022/04/26 11:16:58;;;;;;;76.88;51.53;;;17.60;54.30;;;;;;4924180;28;89917;-66
2022/04/26 11:19:38;;;;;;;76.53;51.13;;;17.60;54.20;;;;;;4926066;28;90760;-66
2022/04/26 11:22:08;;;;;;;78.05;51.47;;;17.60;54.10;;;;;;4919339;28;90295;-67
2022/04/26 11:30:05;;;;;;;77.32;51.67;;;17.60;53.80;;;;;;4935325;28;90520;-66
2022/04/26 11:32:32;;;;;;;77.07;51.10;;;17.60;53.90;;;;;;4932794;28;91618;-66
2022/04/26 11:34:58;;;;;;;78.00;51.45;;;17.60;53.90;;;;;;4921945;28;90688;-66
2022/04/26 11:37:24;;;;;;;76.80;51.28;;;17.60;54.10;;;;;;4933320;28;90745;-67
2022/04/26 11:39:50;;;;;;;78.15;51.70;;;17.60;54.20;;;;;;4933884;28;90905;-66
2022/04/26 11:42:16;;;;;;;78.45;51.75;;;17.70;54.10;;;;;;4933746;28;91641;-66
2022/04/26 11:44:58;;;;;;;79.35;51.63;;;17.70;54.10;;;;;;4931338;28;90004;-67
2022/04/26 11:47:48;;;;;;;78.55;51.83;;;17.70;54.00;;;;;;4929758;28;90392;-66
2022/04/26 11:50:16;;;;;;;78.35;51.83;;;17.70;53.70;;;;;;4922396;28;90432;-66
2022/04/26 11:52:44;;;;;;;77.78;51.75;;;17.70;53.90;;;;;;4934193;28;91217;-66
2022/04/26 11:55:31;;;;;;;77.75;51.67;;;17.70;53.70;;;;;;4927518;28;92038;-66
2022/04/26 11:58:35;;;;;;;78.43;51.83;;;17.70;53.60;;;;;;4939077;28;89698;-67
2022/04/26 12:01:15;;;;;;;78.85;51.63;;;17.80;53.80;;;;;;4887450;28;90081;-64
2022/04/26 12:03:52;;;;;;;78.20;51.65;;;17.80;53.60;;;;;;4922638;28;90872;-66
2022/04/26 12:06:20;;;;;;;78.05;51.85;;;17.80;53.40;;;;;;4928887;28;89735;-66
2022/04/26 12:08:54;;;;;;;77.65;51.55;;;17.80;53.00;;;;;;4941020;28;89826;-66
2022/04/26 12:11:21;;;;;;;78.90;52.10;;;17.80;52.60;;;;;;4932198;28;90282;-66
2022/04/26 12:13:59;;;;;;;78.63;51.83;;;17.80;52.50;;;;;;4936697;28;91855;-66
2022/04/26 12:16:25;;;;;;;78.00;51.58;;;17.80;53.00;;;;;;4931724;28;89739;-66
2022/04/26 12:18:56;;;;;;;81.30;52.17;;;17.80;53.10;;;;;;4940505;28;89561;-66
2022/04/26 12:21:26;;;;;;;80.53;51.97;;;17.80;52.70;;;;;;4937223;28;91071;-66
2022/04/26 12:24:37;;;;;;;78.55;51.50;;;17.80;52.60;;;;;;4929096;28;91377;-66
2022/04/26 12:27:10;;;;;;;78.20;51.72;;;17.90;53.20;;;;;;4929636;28;93585;-66
2022/04/26 12:29:36;;;;;;;77.70;51.58;;;17.90;53.00;;;;;;4932888;28;89966;-67
2022/04/26 12:32:10;;;;;;;79.22;51.92;;;17.80;53.00;;;;;;4942582;28;92201;-66
2022/04/26 12:34:45;;;;;;;78.22;51.60;;;17.90;52.80;;;;;;4929433;28;89879;-66
2022/04/26 12:37:23;;;;;;;77.72;51.63;;;17.90;53.20;;;;;;4929734;28;91851;-65
2022/04/26 12:40:06;;;;;;;77.53;51.38;;;17.90;53.30;;;;;;4933840;28;89861;-66
2022/04/26 12:42:39;;;;;;;78.32;51.47;;;17.90;53.20;;;;;;4929687;28;90015;-67
2022/04/26 12:45:10;;;;;;;78.93;51.88;;;17.90;53.10;;;;;;4934408;28;89780;-66
2022/04/26 12:50:31;;;;;;;78.05;51.45;;;17.90;53.20;;;;;;4933331;28;90185;-66
2022/04/26 12:53:06;;;;;;;78.82;52.03;;;17.90;53.20;;;;;;4921252;28;89922;-66
2022/04/26 12:55:41;;;;;;;78.70;52.03;;;18.00;52.70;;;;;;4911564;28;90454;-66
2022/04/26 12:58:16;;;;;;;78.63;51.95;;;17.90;52.70;;;;;;4940932;28;90390;-66
2022/04/26 13:00:43;;;;;;;78.97;51.92;;;17.90;53.00;;;;;;4928931;28;89431;-66
2022/04/26 13:03:10;;;;;;;78.63;51.65;;;18.00;53.10;;;;;;4940056;28;92066;-67
2022/04/26 13:05:40;;;;;;;79.72;52.03;;;18.00;53.20;;;;;;4923969;28;90068;-67
2022/04/26 13:08:06;;;;;;;81.72;52.45;;;18.00;53.00;;;;;;4928019;28;91195;-66
2022/04/26 13:10:33;;;;;;;78.35;51.95;;;18.00;52.70;;;;;;4933898;28;94885;-66
2022/04/26 13:12:58;;;;;;;79.22;51.95;;;18.00;52.70;;;;;;4927812;28;92000;-66
2022/04/26 13:15:24;;;;;;;80.07;52.08;;;18.00;52.80;;;;;;4936340;28;97502;-66
2022/04/26 13:17:50;;;;;;;80.05;52.13;;;18.00;52.50;;;;;;4927840;28;89528;-66
2022/04/26 13:20:16;;;;;;;78.50;51.80;;;18.00;52.00;;;;;;4908106;28;91858;-66
2022/04/26 13:22:42;;;;;;;78.22;51.80;;;18.00;52.30;;;;;;4931700;28;89998;-66
2022/04/26 13:25:08;;;;;;;78.20;51.75;;;18.00;52.70;;;;;;4929091;28;95262;-66
2022/04/26 13:27:35;;;;;;;78.25;51.60;;;18.00;52.90;;;;;;4928540;28;91147;-66
2022/04/26 13:30:03;;;;;;;78.22;51.75;;;18.00;52.90;;;;;;4924807;28;89911;-66
2022/04/26 13:32:30;;;;;;;78.38;51.85;;;18.00;52.40;;;;;;4925366;28;90742;-66
2022/04/26 13:34:59;;;;;;;78.55;51.58;;;18.00;52.20;;;;;;4927092;28;90976;-66
2022/04/26 13:37:25;;;;;;;78.18;51.58;;;18.10;52.80;;;;;;4924477;28;93032;-66
2022/04/26 13:39:54;;;;;;;78.10;51.65;;;18.10;52.80;;;;;;4931985;28;91765;-66
2022/04/26 13:42:24;;;;;;;78.20;51.75;;;18.10;53.00;;;;;;4930744;28;89541;-66
2022/04/26 13:44:52;;;;;;;78.32;51.38;;;18.10;53.00;;;;;;4932483;28;93690;-66
2022/04/26 13:47:20;;;;;;;79.80;51.63;;;18.10;53.10;;;;;;4931005;28;89748;-66
2022/04/26 13:49:46;;;;;;;78.35;51.60;;;18.10;52.70;;;;;;4937058;28;89946;-66
2022/04/26 13:52:13;;;;;;;79.32;51.85;;;18.10;52.70;;;;;;4922853;28;90814;-66
2022/04/26 13:54:42;;;;;;;78.28;51.42;;;18.10;52.80;;;;;;4929240;28;88861;-66
2022/04/26 13:57:08;;;;;;;78.25;51.55;;;18.10;52.90;;;;;;4927031;28;90120;-66
2022/04/26 13:59:34;;;;;;;77.90;51.70;;;18.10;53.60;;;;;;4936762;28;89508;-66
2022/04/26 14:01:59;;;;;;;79.30;52.08;;;18.10;52.30;;;;;;4931682;28;94507;-66
2022/04/26 14:04:25;;;;;;;78.78;51.83;;;18.10;51.50;;;;;;4935593;28;90181;-67
2022/04/26 14:06:51;;;;;;;78.80;51.65;;;18.10;52.00;;;;;;4928197;28;90742;-67
2022/04/26 14:09:22;;;;;;;79.13;51.75;;;18.10;52.20;;;;;;4921037;28;90037;-66
2022/04/26 14:11:48;;;;;;;78.73;51.80;;;18.10;52.00;;;;;;4932191;28;93278;-67
2022/04/26 14:22:32;;;;;;;78.60;51.58;;;18.10;52.30;;;;;;4909102;28;90000;-66
2022/04/26 14:25:03;;;;;;;78.20;52.03;;;18.20;52.40;;;;;;4915442;28;91720;-67
2022/04/26 14:27:32;;;;;;;80.32;51.85;;;18.10;52.00;;;;;;4925518;28;95598;-67
2022/04/26 14:29:58;;;;;;;78.40;51.85;;;18.10;52.30;;;;;;4929342;28;90248;-67
2022/04/26 14:32:24;;;;;;;79.07;51.65;;;18.20;52.50;;;;;;4923423;28;90680;-66
2022/04/26 14:34:50;;;;;;;80.32;51.83;;;18.20;52.30;;;;;;4928386;28;91667;-67
2022/04/26 14:37:16;;;;;;;78.78;52.03;;;18.20;52.40;;;;;;4914827;28;91898;-67
2022/04/26 14:39:42;;;;;;;80.22;52.08;;;18.20;51.50;;;;;;4916293;28;90534;-67
2022/04/26 14:42:09;;;;;;;79.78;52.08;;;18.20;50.80;;;;;;4926881;28;91891;-67
2022/04/26 14:44:36;;;;;;;79.25;51.60;;;18.20;50.80;;;;;;4931869;28;93321;-66
2022/04/26 14:47:02;;;;;;;78.60;51.88;;;18.20;51.50;;;;;;4927153;28;93966;-66
2022/04/26 14:49:28;;;;;;;78.18;51.78;;;18.10;51.30;;;;;;4925524;28;90831;-66
2022/04/26 14:51:54;;;;;;;78.68;51.80;;;18.10;50.90;;;;;;4919573;28;90936;-66
2022/04/26 14:54:21;;;;;;;78.28;51.70;;;18.20;51.60;;;;;;4922239;28;94464;-65
2022/04/26 14:56:47;;;;;;;78.07;51.33;;;18.20;51.40;;;;;;4930022;28;89997;-66
2022/04/26 14:59:14;;;;;;;79.65;51.67;;;18.20;51.90;;;;;;4933068;28;90686;-67
2022/04/26 15:01:40;;;;;;;78.00;51.63;;;18.20;51.90;;;;;;4924008;28;90721;-68
2022/04/26 15:04:06;;;;;;;78.25;51.83;;;18.20;51.90;;;;;;4918162;28;91121;-70
2022/04/26 15:06:31;;;;;;;78.47;51.58;;;18.20;52.00;;;;;;4929732;28;90306;-66
2022/04/26 15:11:43;;;;;;;78.63;51.67;;;18.20;52.10;;;;;;4931889;28;91231;-66
2022/04/26 15:16:54;;;;;;;78.38;51.70;;;18.20;52.20;;;;;;4925978;28;91337;-66
2022/04/26 15:19:20;;;;;;;78.60;51.92;;;18.20;52.20;;;;;;4927027;28;89588;-66
2022/04/26 15:21:46;;;;;;;78.05;51.63;;;18.20;51.90;;;;;;4928273;28;90846;-66
2022/04/26 15:24:12;;;;;;;79.43;51.97;;;18.20;52.10;;;;;;4914914;28;90140;-64
2022/04/26 15:26:39;;;;;;;79.47;52.00;;;18.30;51.70;;;;;;4912817;28;92638;-65
2022/04/26 15:29:06;;;;;;;79.82;51.70;;;18.20;51.60;;;;;;4934009;28;90088;-66
2022/04/26 15:31:35;;;;;;;78.55;51.83;;;18.30;52.10;;;;;;4937164;28;90094;-66
2022/04/26 15:34:01;;;;;;;80.25;52.13;;;18.30;52.00;;;;;;4933126;28;88874;-66
2022/04/26 15:36:26;;;;;;;79.63;52.25;;;18.30;51.20;;;;;;4926307;28;91349;-66
2022/04/26 15:38:58;;;;;;;78.97;51.80;;;18.20;50.90;;;;;;4913241;28;91318;-66
2022/04/26 15:41:24;;;;;;;80.55;52.22;;;18.20;51.70;;;;;;4911518;28;92242;-66
2022/04/26 15:43:50;;;;;;;79.10;51.95;;;18.30;51.50;;;;;;4912961;28;92456;-65
2022/04/26 15:46:16;;;;;;;79.85;51.75;;;18.30;51.40;;;;;;4922364;28;92528;-66
2022/04/26 15:48:47;;;;;;;79.95;52.20;;;18.30;51.30;;;;;;4921688;28;89811;-66
2022/04/26 15:51:15;;;;;;;79.38;51.95;;;18.30;51.40;;;;;;4926308;28;90204;-65
2022/04/26 15:53:42;;;;;;;79.45;52.35;;;18.30;51.50;;;;;;4921763;28;94408;-66
2022/04/26 15:56:07;;;;;;;83.32;52.40;;;18.30;50.90;;;;;;4927549;28;90922;-66
2022/04/26 15:58:33;;;;;;;79.40;52.03;;;18.30;51.00;;;;;;4925158;28;89813;-65
2022/04/26 16:00:59;;;;;;;80.45;51.83;;;18.30;51.00;;;;;;4927676;28;89710;-66
2022/04/26 16:03:25;;;;;;;79.03;51.85;;;18.30;51.30;;;;;;4933366;28;89444;-66
2022/04/26 16:05:50;;;;;;;79.55;51.95;;;18.30;51.40;;;;;;4931225;28;90529;-65
2022/04/26 16:08:16;;;;;;;79.05;52.03;;;18.30;51.40;;;;;;4912489;28;89632;-65
2022/04/26 16:21:39;;;;;;;80.22;52.03;;;18.40;51.90;;;;;;4925677;28;90920;-65
2022/04/26 16:24:05;;;;;;;78.63;51.85;;;18.30;51.30;;;;;;4923588;28;91845;-66
2022/04/26 16:26:34;;;;;;;80.07;52.28;;;18.30;51.60;;;;;;4928037;28;90348;-66
2022/04/26 16:29:01;;;;;;;81.60;52.45;;;18.30;51.10;;;;;;4909753;28;90565;-66
2022/04/26 16:31:30;;;;;;;78.88;52.05;;;18.30;50.60;;;;;;4905083;28;90952;-67
2022/04/26 16:34:00;;;;;;;78.93;51.75;;;18.30;51.10;;;;;;4922940;28;94220;-65
2022/04/26 16:36:27;;;;;;;78.55;51.65;;;18.30;51.30;;;;;;4921912;28;91764;-66
2022/04/26 16:38:54;;;;;;;81.13;52.33;;;18.30;51.70;;;;;;4921415;28;91322;-66
2022/04/26 16:41:20;;;;;;;80.20;52.00;;;18.30;50.70;;;;;;4913841;28;91212;-66
2022/04/26 16:43:47;;;;;;;81.97;52.15;;;18.30;51.40;;;;;;4908104;28;89912;-65
2022/04/26 16:46:15;;;;;;;78.60;51.85;;;18.30;51.60;;;;;;4918578;28;91266;-66
2022/04/26 16:48:42;;;;;;;78.43;51.90;;;18.30;51.60;;;;;;4916031;28;89744;-66
2022/04/26 16:51:08;;;;;;;79.82;51.80;;;18.40;51.80;;;;;;4921071;28;90208;-66
2022/04/26 16:53:34;;;;;;;79.57;52.08;;;18.30;52.30;;;;;;4912815;28;90952;-66